createdAt,value
2022-08-09T00:00:04.791Z,1002.66
2022-08-09T00:00:12.995Z,1002.66
2022-08-09T00:00:23.898Z,1002.67
2022-08-09T00:00:34.030Z,1002.66
2022-08-09T00:00:46.178Z,1002.66
2022-08-09T00:00:55.119Z,1002.66
2022-08-09T00:01:10.553Z,1002.65
2022-08-09T00:01:17.170Z,1002.66
2022-08-09T00:01:40.312Z,1002.66
2022-08-09T00:01:43.118Z,1002.65
2022-08-09T00:01:54.646Z,1002.65
2022-08-09T00:01:59.236Z,1002.64
2022-08-09T00:02:08.776Z,1002.64
2022-08-09T00:02:19.306Z,1002.64
2022-08-09T00:02:29.938Z,1002.64
2022-08-09T00:02:49.013Z,1002.64
2022-08-09T00:02:51.909Z,1002.63
2022-08-09T00:03:01.329Z,1002.63
2022-08-09T00:04:03.503Z,1002.63
2022-08-09T00:04:05.672Z,1002.63
2022-08-09T00:04:05.731Z,1002.63
2022-08-09T00:04:06.166Z,1002.64
2022-08-09T00:04:10.677Z,1002.63
2022-08-09T00:04:15.385Z,1002.63
2022-08-09T00:04:34.410Z,1002.63
2022-08-09T00:04:34.580Z,1002.64
2022-08-09T00:04:37.039Z,1002.64
2022-08-09T00:05:03.322Z,1002.64
2022-08-09T00:05:03.557Z,1002.64
2022-08-09T00:06:17.290Z,1002.63
2022-08-09T00:06:17.389Z,1002.63
2022-08-09T00:06:17.819Z,1002.63
2022-08-09T00:06:18.016Z,1002.63
2022-08-09T00:06:18.065Z,1002.64
2022-08-09T00:06:18.224Z,1002.63
2022-08-09T00:06:19.618Z,1002.63
2022-08-09T00:06:23.472Z,1002.63
2022-08-09T00:06:32.090Z,1002.63
2022-08-09T00:06:44.219Z,1002.63
2022-08-09T00:06:52.817Z,1002.62
2022-08-09T00:07:03.344Z,1002.62
2022-08-09T00:07:13.871Z,1002.62
2022-08-09T00:07:24.383Z,1002.62
2022-08-09T00:07:44.510Z,1002.62
2022-08-09T00:07:46.428Z,1002.62
2022-08-09T00:07:55.948Z,1002.62
2022-08-09T00:08:09.902Z,1002.61
2022-08-09T00:08:31.899Z,1002.61
2022-08-09T00:08:32.023Z,1002.61
2022-08-09T00:08:38.043Z,1002.61
2022-08-09T00:08:48.562Z,1002.61
2022-08-09T00:08:59.084Z,1002.61
2022-08-09T00:09:09.610Z,1002.61
2022-08-09T00:09:21.014Z,1002.61
2022-08-09T00:09:31.243Z,1002.61
2022-08-09T00:09:41.172Z,1002.61
2022-08-09T00:09:51.692Z,1002.61
2022-08-09T00:10:02.229Z,1002.61
2022-08-09T00:10:20.980Z,1002.61
2022-08-09T00:10:24.609Z,1002.61
2022-08-09T00:10:33.780Z,1002.61
2022-08-09T00:10:44.306Z,1002.61
2022-08-09T00:10:54.830Z,1002.61
2022-08-09T00:11:06.025Z,1002.61
2022-08-09T00:11:24.630Z,1002.61
2022-08-09T00:11:58.543Z,1002.61
2022-08-09T00:12:03.075Z,1002.61
2022-08-09T00:12:03.549Z,1002.61
2022-08-09T00:12:04.499Z,1002.61
2022-08-09T00:12:09.486Z,1002.61
2022-08-09T00:12:22.657Z,1002.60
2022-08-09T00:12:29.827Z,1002.60
2022-08-09T00:12:41.051Z,1002.60
2022-08-09T00:12:52.566Z,1002.60
2022-08-09T00:13:01.091Z,1002.60
2022-08-09T00:13:17.136Z,1002.59
2022-08-09T00:13:23.144Z,1002.59
2022-08-09T00:13:32.654Z,1002.59
2022-08-09T00:13:43.182Z,1002.59
2022-08-09T00:13:53.698Z,1002.58
2022-08-09T00:14:04.214Z,1002.58
2022-08-09T00:14:21.811Z,1002.58
2022-08-09T00:14:36.253Z,1002.57
2022-08-09T00:14:38.464Z,1002.57
2022-08-09T00:14:47.457Z,1002.57
2022-08-09T00:14:57.074Z,1002.57
2022-08-09T00:15:07.334Z,1002.57
2022-08-09T00:15:18.889Z,1002.56
2022-08-09T00:15:57.703Z,1002.56
2022-08-09T00:15:58.965Z,1002.56
2022-08-09T00:15:59.869Z,1002.56
2022-08-09T00:16:02.700Z,1002.55
2022-08-09T00:16:12.807Z,1002.56
2022-08-09T00:16:26.460Z,1002.56
2022-08-09T00:16:38.376Z,1002.56
2022-08-09T00:16:43.035Z,1002.56
2022-08-09T00:16:52.544Z,1002.56
2022-08-09T00:17:03.066Z,1002.57
2022-08-09T00:18:04.615Z,1002.58
2022-08-09T00:18:05.585Z,1002.57
2022-08-09T00:18:05.603Z,1002.58
2022-08-09T00:18:05.940Z,1002.57
2022-08-09T00:18:09.353Z,1002.58
2022-08-09T00:18:11.104Z,1002.58
2022-08-09T00:18:17.707Z,1002.59
2022-08-09T00:18:27.228Z,1002.59
2022-08-09T00:18:37.750Z,1002.59
2022-08-09T00:18:48.265Z,1002.59
2022-08-09T00:18:58.787Z,1002.59
2022-08-09T00:19:10.511Z,1002.59
2022-08-09T00:19:19.828Z,1002.58
2022-08-09T00:19:30.351Z,1002.58
2022-08-09T00:19:40.872Z,1002.58
2022-08-09T00:19:52.388Z,1002.58
2022-08-09T00:20:01.932Z,1002.57
2022-08-09T00:20:12.429Z,1002.57
2022-08-09T00:20:22.961Z,1002.57
2022-08-09T00:20:34.172Z,1002.57
2022-08-09T00:20:49.977Z,1002.57
2022-08-09T00:20:55.515Z,1002.57
2022-08-09T00:21:07.688Z,1002.57
2022-08-09T00:21:15.556Z,1002.57
2022-08-09T00:21:26.085Z,1002.57
2022-08-09T00:21:36.602Z,1002.57
2022-08-09T00:21:56.256Z,1002.57
2022-08-09T00:21:58.643Z,1002.56
2022-08-09T00:22:08.165Z,1002.56
2022-08-09T00:22:18.702Z,1002.56
2022-08-09T00:22:35.041Z,1002.56
2022-08-09T00:22:40.727Z,1002.56
2022-08-09T00:22:50.277Z,1002.56
2022-08-09T00:23:54.040Z,1002.56
2022-08-09T00:23:54.769Z,1002.56
2022-08-09T00:23:55.200Z,1002.55
2022-08-09T00:23:55.721Z,1002.55
2022-08-09T00:23:56.242Z,1002.55
2022-08-09T00:24:00.041Z,1002.55
2022-08-09T00:24:04.901Z,1002.54
2022-08-09T00:24:14.876Z,1002.54
2022-08-09T00:24:24.938Z,1002.54
2022-08-09T00:24:35.464Z,1002.54
2022-08-09T00:24:45.983Z,1002.54
2022-08-09T00:24:56.508Z,1002.54
2022-08-09T00:25:08.544Z,1002.53
2022-08-09T00:25:22.991Z,1002.53
2022-08-09T00:25:32.801Z,1002.52
2022-08-09T00:25:38.587Z,1002.53
2022-08-09T00:25:51.653Z,1002.53
2022-08-09T00:25:59.629Z,1002.52
2022-08-09T00:26:11.390Z,1002.53
2022-08-09T00:26:32.353Z,1002.52
2022-08-09T00:26:33.029Z,1002.53
2022-08-09T00:26:41.712Z,1002.53
2022-08-09T00:26:52.436Z,1002.53
2022-08-09T00:27:02.757Z,1002.53
2022-08-09T00:27:13.277Z,1002.53
2022-08-09T00:27:23.807Z,1002.53
2022-08-09T00:27:36.305Z,1002.53
2022-08-09T00:27:48.023Z,1002.53
2022-08-09T00:27:55.383Z,1002.54
2022-08-09T00:28:05.886Z,1002.54
2022-08-09T00:28:16.402Z,1002.54
2022-08-09T00:28:27.313Z,1002.54
2022-08-09T00:28:37.465Z,1002.54
2022-08-09T00:28:52.517Z,1002.54
2022-08-09T00:28:58.495Z,1002.54
2022-08-09T00:29:12.581Z,1002.54
2022-08-09T00:29:39.250Z,1002.54
2022-08-09T00:29:39.918Z,1002.54
2022-08-09T00:30:16.446Z,1002.54
2022-08-09T00:30:24.373Z,1002.54
2022-08-09T00:30:24.543Z,1002.54
2022-08-09T00:30:24.689Z,1002.54
2022-08-09T00:30:26.217Z,1002.53
2022-08-09T00:30:33.183Z,1002.54
2022-08-09T00:30:43.704Z,1002.54
2022-08-09T00:30:54.230Z,1002.54
2022-08-09T00:31:30.480Z,1002.53
2022-08-09T00:31:55.721Z,1002.53
2022-08-09T00:31:58.459Z,1002.53
2022-08-09T00:31:59.358Z,1002.53
2022-08-09T00:31:59.594Z,1002.53
2022-08-09T00:32:01.065Z,1002.53
2022-08-09T00:32:07.873Z,1002.52
2022-08-09T00:32:25.420Z,1002.52
2022-08-09T00:32:29.915Z,1002.53
2022-08-09T00:32:39.668Z,1002.53
2022-08-09T00:32:49.958Z,1002.53
2022-08-09T00:33:00.491Z,1002.53
2022-08-09T00:33:11.007Z,1002.53
2022-08-09T00:33:32.587Z,1002.53
2022-08-09T00:33:49.101Z,1002.52
2022-08-09T00:33:50.647Z,1002.53
2022-08-09T00:33:54.107Z,1002.53
2022-08-09T00:34:03.626Z,1002.53
2022-08-09T00:34:14.133Z,1002.53
2022-08-09T00:34:24.649Z,1002.53
2022-08-09T00:34:35.170Z,1002.53
2022-08-09T00:34:46.361Z,1002.52
2022-08-09T00:34:58.591Z,1002.52
2022-08-09T00:35:06.738Z,1002.52
2022-08-09T00:35:17.258Z,1002.52
2022-08-09T00:35:27.786Z,1002.52
2022-08-09T00:35:43.389Z,1002.52
2022-08-09T00:35:49.825Z,1002.52
2022-08-09T00:35:59.343Z,1002.52
2022-08-09T00:36:09.881Z,1002.52
2022-08-09T00:36:20.433Z,1002.52
2022-08-09T00:36:30.941Z,1002.52
2022-08-09T00:36:41.694Z,1002.52
2022-08-09T00:36:52.190Z,1002.52
2022-08-09T00:37:02.473Z,1002.53
2022-08-09T00:37:12.998Z,1002.52
2022-08-09T00:37:24.020Z,1002.52
2022-08-09T00:37:34.044Z,1002.53
2022-08-09T00:37:44.560Z,1002.52
2022-08-09T00:37:55.089Z,1002.53
2022-08-09T00:38:05.598Z,1002.52
2022-08-09T00:38:16.133Z,1002.52
2022-08-09T00:38:27.648Z,1002.52
2022-08-09T00:38:37.170Z,1002.53
2022-08-09T00:38:50.779Z,1002.53
2022-08-09T00:38:58.214Z,1002.53
2022-08-09T00:39:16.848Z,1002.53
2022-08-09T00:40:09.724Z,1002.53
2022-08-09T00:40:12.078Z,1002.53
2022-08-09T00:40:12.667Z,1002.54
2022-08-09T00:40:14.088Z,1002.53
2022-08-09T00:40:14.160Z,1002.53
2022-08-09T00:40:17.351Z,1002.54
2022-08-09T00:40:23.438Z,1002.54
2022-08-09T00:40:33.917Z,1002.54
2022-08-09T00:40:52.786Z,1002.54
2022-08-09T00:40:55.003Z,1002.54
2022-08-09T00:41:05.276Z,1002.54
2022-08-09T00:44:09.895Z,1002.53
2022-08-09T00:44:11.352Z,1002.54
2022-08-09T00:44:11.610Z,1002.53
2022-08-09T00:44:11.923Z,1002.54
2022-08-09T00:44:11.924Z,1002.55
2022-08-09T00:44:13.487Z,1002.55
2022-08-09T00:44:13.564Z,1002.54
2022-08-09T00:44:13.998Z,1002.53
2022-08-09T00:44:13.998Z,1002.54
2022-08-09T00:44:14.883Z,1002.54
2022-08-09T00:44:15.218Z,1002.55
2022-08-09T00:44:15.996Z,1002.55
2022-08-09T00:44:16.062Z,1002.54
2022-08-09T00:44:16.316Z,1002.53
2022-08-09T00:44:19.799Z,1002.55
2022-08-09T00:44:19.800Z,1002.54
2022-08-09T00:44:26.088Z,1002.55
2022-08-09T00:44:26.852Z,1002.55
2022-08-09T00:44:27.231Z,1002.54
2022-08-09T00:44:37.484Z,1002.54
2022-08-09T00:44:47.105Z,1002.54
2022-08-09T00:44:55.916Z,1002.54
2022-08-09T00:45:15.718Z,1002.53
2022-08-09T00:45:17.959Z,1002.53
2022-08-09T00:45:27.476Z,1002.53
2022-08-09T00:45:37.995Z,1002.53
2022-08-09T00:45:53.840Z,1002.53
2022-08-09T00:45:59.045Z,1002.53
2022-08-09T00:46:09.557Z,1002.53
2022-08-09T00:46:45.333Z,1002.53
2022-08-09T00:46:55.638Z,1002.53
2022-08-09T00:46:56.303Z,1002.54
2022-08-09T00:46:56.854Z,1002.53
2022-08-09T00:47:05.076Z,1002.53
2022-08-09T00:47:15.341Z,1002.53
2022-08-09T00:47:24.808Z,1002.53
2022-08-09T00:47:39.717Z,1002.53
2022-08-09T00:47:45.455Z,1002.53
2022-08-09T00:47:55.423Z,1002.53
2022-08-09T00:48:05.617Z,1002.53
2022-08-09T00:48:15.802Z,1002.54
2022-08-09T00:48:26.321Z,1002.53
2022-08-09T00:48:36.843Z,1002.53
2022-08-09T00:48:47.461Z,1002.53
2022-08-09T00:48:57.879Z,1002.53
2022-08-09T00:49:08.406Z,1002.53
2022-08-09T00:49:20.529Z,1002.53
2022-08-09T00:49:31.056Z,1002.53
2022-08-09T00:49:39.957Z,1002.53
2022-08-09T00:49:54.513Z,1002.53
2022-08-09T00:50:01.314Z,1002.53
2022-08-09T00:50:14.274Z,1002.53
2022-08-09T00:50:22.038Z,1002.53
2022-08-09T00:50:32.563Z,1002.53
2022-08-09T00:50:43.080Z,1002.53
2022-08-09T00:50:53.605Z,1002.54
2022-08-09T00:51:10.288Z,1002.54
2022-08-09T00:51:15.635Z,1002.54
2022-08-09T00:51:25.161Z,1002.54
2022-08-09T00:51:54.401Z,1002.54
2022-08-09T00:51:54.628Z,1002.55
2022-08-09T00:51:57.720Z,1002.55
2022-08-09T00:52:15.916Z,1002.55
2022-08-09T00:52:18.751Z,1002.55
2022-08-09T00:52:30.769Z,1002.55
2022-08-09T00:52:38.792Z,1002.56
2022-08-09T00:52:49.305Z,1002.56
2022-08-09T00:52:59.836Z,1002.55
2022-08-09T00:53:11.814Z,1002.56
2022-08-09T00:53:24.332Z,1002.56
2022-08-09T00:53:31.390Z,1002.56
2022-08-09T00:53:41.904Z,1002.56
2022-08-09T00:53:52.614Z,1002.57
2022-08-09T00:54:02.953Z,1002.57
2022-08-09T00:54:13.461Z,1002.57
2022-08-09T00:54:31.615Z,1002.56
2022-08-09T00:54:36.470Z,1002.56
2022-08-09T00:54:45.135Z,1002.56
2022-08-09T00:54:55.543Z,1002.56
2022-08-09T00:55:06.107Z,1002.56
2022-08-09T00:55:32.822Z,1002.57
2022-08-09T00:56:03.596Z,1002.57
2022-08-09T00:56:04.527Z,1002.57
2022-08-09T00:56:05.257Z,1002.57
2022-08-09T00:56:05.741Z,1002.57
2022-08-09T00:56:10.206Z,1002.58
2022-08-09T00:56:19.692Z,1002.58
2022-08-09T00:56:30.216Z,1002.58
2022-08-09T00:56:40.737Z,1002.58
2022-08-09T00:56:51.256Z,1002.58
2022-08-09T00:57:01.772Z,1002.58
2022-08-09T00:57:12.302Z,1002.58
2022-08-09T00:57:33.922Z,1002.58
2022-08-09T00:57:35.735Z,1002.58
2022-08-09T00:57:43.845Z,1002.58
2022-08-09T00:57:55.366Z,1002.58
2022-08-09T00:58:05.034Z,1002.57
2022-08-09T00:58:22.192Z,1002.58
2022-08-09T00:58:27.699Z,1002.57
2022-08-09T00:58:36.449Z,1002.57
2022-08-09T00:58:49.079Z,1002.57
2022-08-09T00:58:57.484Z,1002.57
2022-08-09T00:59:08.003Z,1002.57
2022-08-09T00:59:20.188Z,1002.56
2022-08-09T00:59:40.492Z,1002.56
2022-08-09T00:59:46.504Z,1002.56
2022-08-09T00:59:52.538Z,1002.56
2022-08-09T01:00:00.732Z,1002.56
2022-08-09T01:00:21.657Z,1002.56
2022-08-09T01:00:23.809Z,1002.55
2022-08-09T01:00:32.162Z,1002.55
2022-08-09T01:00:42.684Z,1002.55
2022-08-09T01:00:53.250Z,1002.54
2022-08-09T01:01:03.836Z,1002.54
2022-08-09T01:01:16.198Z,1002.54
2022-08-09T01:01:24.806Z,1002.54
2022-08-09T01:01:44.590Z,1002.54
2022-08-09T01:01:46.886Z,1002.53
2022-08-09T01:01:56.415Z,1002.53
2022-08-09T01:02:06.861Z,1002.53
2022-08-09T01:02:17.351Z,1002.52
2022-08-09T01:02:27.888Z,1002.52
2022-08-09T01:02:38.417Z,1002.51
2022-08-09T01:02:48.915Z,1002.51
2022-08-09T01:02:59.440Z,1002.51
2022-08-09T01:03:09.954Z,1002.51
2022-08-09T01:03:20.471Z,1002.51
2022-08-09T01:03:30.991Z,1002.50
2022-08-09T01:03:46.602Z,1002.50
2022-08-09T01:03:53.030Z,1002.51
2022-08-09T01:04:02.548Z,1002.51
2022-08-09T01:04:13.063Z,1002.51
2022-08-09T01:04:23.583Z,1002.51
2022-08-09T01:04:34.113Z,1002.51
2022-08-09T01:04:44.623Z,1002.51
2022-08-09T01:04:55.141Z,1002.52
2022-08-09T01:05:14.056Z,1002.52
2022-08-09T01:05:22.159Z,1002.52
2022-08-09T01:05:46.433Z,1002.52
2022-08-09T01:05:51.627Z,1002.52
2022-08-09T01:05:53.475Z,1002.51
2022-08-09T01:05:59.258Z,1002.52
2022-08-09T01:06:17.345Z,1002.51
2022-08-09T01:06:20.303Z,1002.51
2022-08-09T01:06:53.421Z,1002.51
2022-08-09T01:06:54.504Z,1002.51
2022-08-09T01:06:54.772Z,1002.51
2022-08-09T01:07:01.377Z,1002.51
2022-08-09T01:07:12.315Z,1002.51
2022-08-09T01:07:37.811Z,1002.50
2022-08-09T01:07:37.869Z,1002.51
2022-08-09T01:08:00.466Z,1002.50
2022-08-09T01:08:00.676Z,1002.50
2022-08-09T01:08:05.494Z,1002.50
2022-08-09T01:08:15.011Z,1002.50
2022-08-09T01:08:27.056Z,1002.51
2022-08-09T01:08:36.852Z,1002.50
2022-08-09T01:08:49.406Z,1002.50
2022-08-09T01:08:57.087Z,1002.50
2022-08-09T01:09:09.675Z,1002.51
2022-08-09T01:09:18.135Z,1002.50
2022-08-09T01:09:35.801Z,1002.50
2022-08-09T01:09:40.164Z,1002.50
2022-08-09T01:09:49.684Z,1002.50
2022-08-09T01:10:00.203Z,1002.50
2022-08-09T01:10:10.721Z,1002.50
2022-08-09T01:10:21.238Z,1002.50
2022-08-09T01:10:31.756Z,1002.50
2022-08-09T01:10:42.279Z,1002.49
2022-08-09T01:10:52.793Z,1002.48
2022-08-09T01:11:03.312Z,1002.48
2022-08-09T01:11:15.119Z,1002.48
2022-08-09T01:11:24.353Z,1002.48
2022-08-09T01:11:34.870Z,1002.48
2022-08-09T01:11:55.726Z,1002.47
2022-08-09T01:11:56.910Z,1002.47
2022-08-09T01:12:06.430Z,1002.47
2022-08-09T01:12:16.947Z,1002.46
2022-08-09T01:12:27.482Z,1002.47
2022-08-09T01:12:37.983Z,1002.47
2022-08-09T01:12:48.503Z,1002.47
2022-08-09T01:12:59.059Z,1002.46
2022-08-09T01:13:09.537Z,1002.46
2022-08-09T01:13:22.129Z,1002.46
2022-08-09T01:13:31.319Z,1002.45
2022-08-09T01:13:59.085Z,1002.46
2022-08-09T01:13:59.531Z,1002.45
2022-08-09T01:14:03.135Z,1002.45
2022-08-09T01:14:12.650Z,1002.45
2022-08-09T01:14:23.165Z,1002.45
2022-08-09T01:14:33.690Z,1002.44
2022-08-09T01:14:44.204Z,1002.44
2022-08-09T01:14:54.721Z,1002.44
2022-08-09T01:15:05.731Z,1002.44
2022-08-09T01:15:16.813Z,1002.44
2022-08-09T01:15:26.279Z,1002.44
2022-08-09T01:15:37.256Z,1002.43
2022-08-09T01:15:51.813Z,1002.43
2022-08-09T01:15:58.832Z,1002.43
2022-08-09T01:16:08.355Z,1002.44
2022-08-09T01:16:18.869Z,1002.44
2022-08-09T01:16:29.383Z,1002.43
2022-08-09T01:16:39.910Z,1002.43
2022-08-09T01:16:51.429Z,1002.43
2022-08-09T01:17:00.944Z,1002.43
2022-08-09T01:17:11.465Z,1002.43
2022-08-09T01:17:21.985Z,1002.43
2022-08-09T01:17:34.234Z,1002.44
2022-08-09T01:17:43.018Z,1002.43
2022-08-09T01:17:57.713Z,1002.43
2022-08-09T01:18:04.095Z,1002.43
2022-08-09T01:18:14.569Z,1002.43
2022-08-09T01:18:30.223Z,1002.44
2022-08-09T01:18:36.609Z,1002.44
2022-08-09T01:18:47.459Z,1002.44
2022-08-09T01:19:01.938Z,1002.43
2022-08-09T01:19:08.174Z,1002.43
2022-08-09T01:19:39.863Z,1002.44
2022-08-09T01:19:42.488Z,1002.44
2022-08-09T01:19:51.875Z,1002.44
2022-08-09T01:20:01.474Z,1002.44
2022-08-09T01:20:02.632Z,1002.45
2022-08-09T01:20:10.286Z,1002.45
2022-08-09T01:20:20.807Z,1002.45
2022-08-09T01:20:31.327Z,1002.45
2022-08-09T01:20:41.852Z,1002.45
2022-08-09T01:20:52.366Z,1002.45
2022-08-09T01:21:02.883Z,1002.45
2022-08-09T01:21:13.401Z,1002.46
2022-08-09T01:21:24.878Z,1002.47
2022-08-09T01:21:41.321Z,1002.46
2022-08-09T01:21:52.361Z,1002.46
2022-08-09T01:21:56.479Z,1002.46
2022-08-09T01:22:05.994Z,1002.46
2022-08-09T01:22:17.515Z,1002.47
2022-08-09T01:22:27.083Z,1002.47
2022-08-09T01:22:37.548Z,1002.47
2022-08-09T01:22:48.273Z,1002.46
2022-08-09T01:22:58.584Z,1002.46
2022-08-09T01:24:00.933Z,1002.47
2022-08-09T01:24:01.748Z,1002.47
2022-08-09T01:24:02.075Z,1002.47
2022-08-09T01:24:02.422Z,1002.47
2022-08-09T01:24:02.774Z,1002.47
2022-08-09T01:24:05.010Z,1002.47
2022-08-09T01:24:12.210Z,1002.47
2022-08-09T01:24:22.739Z,1002.47
2022-08-09T01:24:33.256Z,1002.47
2022-08-09T01:24:43.960Z,1002.47
2022-08-09T01:24:55.293Z,1002.47
2022-08-09T01:25:04.808Z,1002.48
2022-08-09T01:25:15.360Z,1002.48
2022-08-09T01:25:25.850Z,1002.48
2022-08-09T01:25:37.524Z,1002.48
2022-08-09T01:25:48.918Z,1002.48
2022-08-09T01:25:57.397Z,1002.48
2022-08-09T01:26:07.915Z,1002.48
2022-08-09T01:26:18.467Z,1002.48
2022-08-09T01:26:28.960Z,1002.48
2022-08-09T01:26:39.468Z,1002.49
2022-08-09T01:26:53.622Z,1002.49
2022-08-09T01:27:00.509Z,1002.49
2022-08-09T01:27:11.031Z,1002.49
2022-08-09T01:27:21.546Z,1002.50
2022-08-09T01:27:32.071Z,1002.50
2022-08-09T01:27:42.585Z,1002.50
2022-08-09T01:27:53.106Z,1002.50
2022-08-09T01:28:03.624Z,1002.51
2022-08-09T01:28:14.147Z,1002.51
2022-08-09T01:28:25.377Z,1002.51
2022-08-09T01:28:35.177Z,1002.51
2022-08-09T01:28:45.704Z,1002.51
2022-08-09T01:28:56.233Z,1002.51
2022-08-09T01:29:06.738Z,1002.52
2022-08-09T01:29:17.251Z,1002.52
2022-08-09T01:29:28.068Z,1002.52
2022-08-09T01:29:41.332Z,1002.53
2022-08-09T01:29:55.235Z,1002.52
2022-08-09T01:30:00.718Z,1002.53
2022-08-09T01:30:28.672Z,1002.53
2022-08-09T01:30:33.739Z,1002.53
2022-08-09T01:30:35.332Z,1002.53
2022-08-09T01:30:51.660Z,1002.53
2022-08-09T01:30:53.122Z,1002.53
2022-08-09T01:31:02.435Z,1002.54
2022-08-09T01:32:29.473Z,1002.53
2022-08-09T01:32:30.681Z,1002.53
2022-08-09T01:32:31.113Z,1002.53
2022-08-09T01:32:31.246Z,1002.53
2022-08-09T01:32:31.575Z,1002.53
2022-08-09T01:32:31.575Z,1002.53
2022-08-09T01:32:31.851Z,1002.53
2022-08-09T01:32:32.496Z,1002.54
2022-08-09T01:32:38.183Z,1002.53
2022-08-09T01:32:47.686Z,1002.53
2022-08-09T01:32:58.119Z,1002.53
2022-08-09T01:33:10.076Z,1002.53
2022-08-09T01:33:19.185Z,1002.52
2022-08-09T01:33:29.673Z,1002.53
2022-08-09T01:33:40.186Z,1002.53
2022-08-09T01:33:50.707Z,1002.53
2022-08-09T01:34:01.233Z,1002.54
2022-08-09T01:34:11.738Z,1002.54
2022-08-09T01:34:22.257Z,1002.54
2022-08-09T01:34:32.773Z,1002.54
2022-08-09T01:34:43.320Z,1002.54
2022-08-09T01:34:53.810Z,1002.54
2022-08-09T01:35:07.141Z,1002.55
2022-08-09T01:35:28.594Z,1002.55
2022-08-09T01:35:37.837Z,1002.55
2022-08-09T01:35:38.470Z,1002.55
2022-08-09T01:35:46.399Z,1002.55
2022-08-09T01:35:59.182Z,1002.56
2022-08-09T01:36:07.505Z,1002.56
2022-08-09T01:36:17.957Z,1002.56
2022-08-09T01:36:28.477Z,1002.56
2022-08-09T01:36:39.322Z,1002.57
2022-08-09T01:36:49.510Z,1002.57
2022-08-09T01:37:00.028Z,1002.57
2022-08-09T01:37:10.545Z,1002.57
2022-08-09T01:37:42.760Z,1002.57
2022-08-09T01:37:42.889Z,1002.58
2022-08-09T01:38:09.255Z,1002.58
2022-08-09T01:38:10.122Z,1002.58
2022-08-09T01:38:10.190Z,1002.58
2022-08-09T01:38:15.356Z,1002.58
2022-08-09T01:38:24.630Z,1002.59
2022-08-09T01:38:34.686Z,1002.58
2022-08-09T01:38:46.590Z,1002.59
2022-08-09T01:38:55.722Z,1002.59
2022-08-09T01:39:06.291Z,1002.59
2022-08-09T01:39:16.871Z,1002.59
2022-08-09T01:39:27.357Z,1002.60
2022-08-09T01:39:37.887Z,1002.60
2022-08-09T01:39:48.366Z,1002.59
2022-08-09T01:39:58.836Z,1002.59
2022-08-09T01:40:09.395Z,1002.59
2022-08-09T01:40:23.132Z,1002.59
2022-08-09T01:40:31.394Z,1002.59
2022-08-09T01:40:40.910Z,1002.59
2022-08-09T01:40:52.656Z,1002.59
2022-08-09T01:41:05.548Z,1002.59
2022-08-09T01:41:12.461Z,1002.59
2022-08-09T01:41:25.847Z,1002.59
2022-08-09T01:41:33.494Z,1002.60
2022-08-09T01:41:53.364Z,1002.60
2022-08-09T01:42:01.407Z,1002.59
2022-08-09T01:42:11.234Z,1002.58
2022-08-09T01:42:16.577Z,1002.59
2022-08-09T01:42:26.093Z,1002.59
2022-08-09T01:42:36.607Z,1002.59
2022-08-09T01:42:47.120Z,1002.59
2022-08-09T01:42:57.635Z,1002.59
2022-08-09T01:43:08.156Z,1002.59
2022-08-09T01:43:18.674Z,1002.59
2022-08-09T01:43:29.197Z,1002.59
2022-08-09T01:43:42.007Z,1002.59
2022-08-09T01:43:52.610Z,1002.59
2022-08-09T01:44:00.750Z,1002.59
2022-08-09T01:44:11.260Z,1002.59
2022-08-09T01:44:21.781Z,1002.59
2022-08-09T01:44:32.299Z,1002.59
2022-08-09T01:44:42.822Z,1002.59
2022-08-09T01:44:53.332Z,1002.59
2022-08-09T01:45:03.851Z,1002.59
2022-08-09T01:45:14.413Z,1002.59
2022-08-09T01:45:24.885Z,1002.59
2022-08-09T01:45:35.496Z,1002.59
2022-08-09T01:45:47.733Z,1002.59
2022-08-09T01:45:58.052Z,1002.59
2022-08-09T01:46:06.957Z,1002.58
2022-08-09T01:46:18.198Z,1002.58
2022-08-09T01:46:28.988Z,1002.58
2022-08-09T01:46:38.514Z,1002.58
2022-08-09T01:46:49.024Z,1002.58
2022-08-09T01:46:59.896Z,1002.58
2022-08-09T01:47:11.824Z,1002.58
2022-08-09T01:47:20.590Z,1002.58
2022-08-09T01:47:31.362Z,1002.58
2022-08-09T01:47:44.811Z,1002.58
2022-08-09T01:47:52.128Z,1002.57
2022-08-09T01:48:05.919Z,1002.57
2022-08-09T01:48:15.526Z,1002.56
2022-08-09T01:48:29.462Z,1002.56
2022-08-09T01:48:35.197Z,1002.56
2022-08-09T01:48:44.716Z,1002.56
2022-08-09T01:48:55.237Z,1002.55
2022-08-09T01:49:09.644Z,1002.55
2022-08-09T01:49:17.297Z,1002.55
2022-08-09T01:49:26.793Z,1002.55
2022-08-09T01:49:39.114Z,1002.55
2022-08-09T01:49:50.776Z,1002.55
2022-08-09T01:49:58.350Z,1002.54
2022-08-09T01:50:08.861Z,1002.55
2022-08-09T01:50:19.377Z,1002.54
2022-08-09T01:50:37.195Z,1002.54
2022-08-09T01:50:41.859Z,1002.54
2022-08-09T01:50:55.205Z,1002.54
2022-08-09T01:51:02.603Z,1002.55
2022-08-09T01:51:11.968Z,1002.54
2022-08-09T01:51:23.521Z,1002.54
2022-08-09T01:51:33.149Z,1002.55
2022-08-09T01:51:44.369Z,1002.55
2022-08-09T01:51:55.045Z,1002.55
2022-08-09T01:52:07.611Z,1002.55
2022-08-09T01:52:15.078Z,1002.55
2022-08-09T01:52:26.149Z,1002.55
2022-08-09T01:52:36.115Z,1002.56
2022-08-09T01:52:47.629Z,1002.56
2022-08-09T01:52:57.143Z,1002.56
2022-08-09T01:53:19.594Z,1002.56
2022-08-09T01:53:21.512Z,1002.56
2022-08-09T01:53:28.882Z,1002.57
2022-08-09T01:53:41.482Z,1002.57
2022-08-09T01:53:49.728Z,1002.57
2022-08-09T01:54:00.248Z,1002.57
2022-08-09T01:54:10.762Z,1002.57
2022-08-09T01:54:21.286Z,1002.58
2022-08-09T01:54:32.529Z,1002.58
2022-08-09T01:54:42.341Z,1002.58
2022-08-09T01:54:52.837Z,1002.58
2022-08-09T01:55:03.352Z,1002.59
2022-08-09T01:55:13.870Z,1002.59
2022-08-09T01:55:24.387Z,1002.59
2022-08-09T01:55:34.898Z,1002.59
2022-08-09T01:55:45.426Z,1002.59
2022-08-09T01:55:55.942Z,1002.58
2022-08-09T01:56:06.457Z,1002.58
2022-08-09T01:56:16.977Z,1002.58
2022-08-09T01:56:27.514Z,1002.58
2022-08-09T01:56:38.008Z,1002.58
2022-08-09T01:56:51.719Z,1002.58
2022-08-09T01:56:59.046Z,1002.58
2022-08-09T01:57:10.566Z,1002.58
2022-08-09T01:57:20.534Z,1002.58
2022-08-09T01:57:30.600Z,1002.58
2022-08-09T01:57:45.755Z,1002.58
2022-08-09T01:57:52.954Z,1002.57
2022-08-09T01:58:02.167Z,1002.57
2022-08-09T01:58:12.675Z,1002.57
2022-08-09T01:58:24.348Z,1002.57
2022-08-09T01:58:33.741Z,1002.58
2022-08-09T01:58:44.225Z,1002.57
2022-08-09T01:58:54.753Z,1002.57
2022-08-09T01:59:05.270Z,1002.57
2022-08-09T01:59:16.056Z,1002.57
2022-08-09T01:59:26.296Z,1002.57
2022-08-09T01:59:50.804Z,1002.57
2022-08-09T01:59:51.495Z,1002.57
2022-08-09T02:00:00.196Z,1002.57
2022-08-09T02:00:19.199Z,1002.57
2022-08-09T02:00:35.493Z,1002.56
2022-08-09T02:00:35.592Z,1002.57
2022-08-09T02:00:40.930Z,1002.57
2022-08-09T02:00:51.478Z,1002.57
2022-08-09T02:01:01.007Z,1002.56
2022-08-09T02:01:11.555Z,1002.56
2022-08-09T02:01:57.597Z,1002.56
2022-08-09T02:01:58.094Z,1002.56
2022-08-09T02:02:00.007Z,1002.56
2022-08-09T02:02:00.224Z,1002.56
2022-08-09T02:02:05.188Z,1002.55
2022-08-09T02:02:14.638Z,1002.55
2022-08-09T02:02:31.596Z,1002.56
2022-08-09T02:02:36.716Z,1002.56
2022-08-09T02:02:46.152Z,1002.56
2022-08-09T02:02:56.659Z,1002.56
2022-08-09T02:03:07.184Z,1002.56
2022-08-09T02:03:18.700Z,1002.56
2022-08-09T02:03:28.216Z,1002.56
2022-08-09T02:03:38.727Z,1002.56
2022-08-09T02:03:49.248Z,1002.55
2022-08-09T02:03:59.764Z,1002.56
2022-08-09T02:04:10.285Z,1002.55
2022-08-09T02:04:20.805Z,1002.56
2022-08-09T02:04:31.327Z,1002.55
2022-08-09T02:04:45.727Z,1002.55
2022-08-09T02:04:53.371Z,1002.55
2022-08-09T02:05:05.557Z,1002.56
2022-08-09T02:05:15.816Z,1002.56
2022-08-09T02:05:35.528Z,1002.56
2022-08-09T02:05:53.401Z,1002.56
2022-08-09T02:05:53.546Z,1002.56
2022-08-09T02:06:06.117Z,1002.56
2022-08-09T02:06:07.159Z,1002.56
2022-08-09T02:06:16.514Z,1002.55
2022-08-09T02:06:27.026Z,1002.56
2022-08-09T02:06:38.551Z,1002.55
2022-08-09T02:06:58.480Z,1002.56
2022-08-09T02:07:02.012Z,1002.56
2022-08-09T02:07:17.850Z,1002.56